Terminal Aerodrome Forecast
Issued by NWS Austin/San Antonio, TX

Home | Current Version | Previous Version | Text Only | Print | Product List | Glossary On
Versions: 1 2 3 4 5 6 7 8 9 10 11 12 13 14 15 16 17 18 19 20 21 22 23 24 25
000
FTUS44 KEWX 272320
TAFSAT
TAF
KSAT 272320Z 2800/2906 12012KT P6SM VCSH SCT025 BKN090 BKN200
     FM280200 10006KT P6SM SCT025 BKN100 BKN250
     FM280700 06004KT P6SM FEW008 BKN012
     FM281700 10007KT P6SM BKN040=

USA.gov is the U.S. government's official web portal to all federal, state and local government web resources and services.